Time;durP1;ratioP1;P1;durP2;ratioP2;P2;SDS_P1;SDS_P2;PMS_P1;PMS_P2;Temp;Humidity;BMP_temperature;BMP_pressure;BME280_temperature;BME280_humidity;BME280_pressure;Samples;Min_cycle;Max_cycle;Signal;HPM_P1;HPM_P2
2021/07/25 00:00:36;;;;;;;6.57;4.28;;;;;;;23.34;68.33;101165.09;4981859;28;102140;-53
2021/07/25 00:03:03;;;;;;;5.53;4.53;;;;;;;23.34;68.54;101176.22;4988042;28;102342;-53
2021/07/25 00:05:30;;;;;;;5.85;4.70;;;;;;;23.35;68.47;101178.63;4995018;28;102450;-53
2021/07/25 00:07:57;;;;;;;4.65;4.25;;;;;;;23.35;68.71;101183.38;4988714;28;107405;-53
2021/07/25 00:10:24;;;;;;;7.05;4.80;;;;;;;23.35;68.64;101178.63;4986159;28;102442;-53
2021/07/25 00:12:53;;;;;;;6.05;4.25;;;;;;;23.34;68.71;101171.47;4985734;28;102051;-53
2021/07/25 00:15:20;;;;;;;5.80;4.50;;;;;;;23.34;68.87;101171.47;4985222;28;102359;-53
2021/07/25 00:17:46;;;;;;;5.47;4.43;;;;;;;23.34;68.92;101173.44;4986737;28;103612;-53
2021/07/25 00:20:14;;;;;;;5.65;4.55;;;;;;;23.35;68.67;101175.06;4990240;28;102243;-53
2021/07/25 00:22:40;;;;;;;5.03;4.13;;;;;;;23.34;68.72;101163.13;4984970;28;102485;-53
2021/07/25 00:25:08;;;;;;;6.82;4.70;;;;;;;23.33;68.61;101174.56;4986542;28;102425;-53
2021/07/25 00:27:39;;;;;;;7.60;4.45;;;;;;;23.33;68.60;101169.03;4984227;28;103915;-53
2021/07/25 00:30:09;;;;;;;6.22;4.72;;;;;;;23.33;68.69;101169.81;4981954;28;102268;-53
2021/07/25 00:32:36;;;;;;;6.32;4.65;;;;;;;23.33;68.63;101169.81;4991917;28;102601;-53
2021/07/25 00:35:03;;;;;;;7.55;5.30;;;;;;;23.33;68.64;101174.56;4990327;28;104509;-58
2021/07/25 00:37:30;;;;;;;5.82;5.00;;;;;;;23.34;68.54;101170.66;4990010;28;103933;-52
2021/07/25 00:39:57;;;;;;;5.53;4.63;;;;;;;23.34;68.69;101167.88;4989656;28;102445;-53
2021/07/25 00:42:23;;;;;;;8.05;5.00;;;;;;;23.34;68.77;101170.66;4990166;28;105323;-53
2021/07/25 00:44:51;;;;;;;7.07;5.00;;;;;;;23.33;68.74;101169.81;4979524;28;102834;-53
2021/07/25 00:47:19;;;;;;;7.35;4.88;;;;;;;23.33;68.76;101169.81;4986348;28;103975;-53
2021/07/25 00:49:46;;;;;;;5.25;4.75;;;;;;;23.33;68.47;101169.03;5001896;28;102166;-53
2021/07/25 00:52:12;;;;;;;8.40;4.80;;;;;;;23.32;68.69;101181.28;4990608;28;102698;-53
2021/07/25 00:54:39;;;;;;;6.03;4.60;;;;;;;23.32;68.62;101178.53;4992106;28;102417;-53
2021/07/25 00:57:06;;;;;;;7.30;5.07;;;;;;;23.32;68.72;101175.75;4992552;28;103022;-53
2021/07/25 00:59:33;;;;;;;7.45;5.03;;;;;;;23.32;68.62;101172.97;4989332;28;102368;-53
2021/07/25 01:02:00;;;;;;;7.07;4.80;;;;;;;23.32;68.54;101172.97;4987503;28;102322;-52
2021/07/25 01:04:41;;;;;;;8.18;5.07;;;;;;;23.31;68.78;101177.72;4988098;28;102193;-53
2021/07/25 01:07:16;;;;;;;6.82;4.55;;;;;;;23.33;68.74;101174.56;4985572;28;103718;-53
2021/07/25 01:09:54;;;;;;;7.38;4.90;;;;;;;23.31;68.50;101182.47;4987617;28;102078;-53
2021/07/25 01:12:37;;;;;;;5.93;4.93;;;;;;;23.32;68.73;101175.75;4988297;28;102697;-53
2021/07/25 01:15:05;;;;;;;5.57;4.45;;;;;;;23.31;68.65;101176.91;4990305;28;102786;-53
2021/07/25 01:17:33;;;;;;;6.63;4.90;;;;;;;23.31;68.55;101179.69;4984518;28;104236;-53
2021/07/25 01:20:03;;;;;;;6.07;5.03;;;;;;;23.32;68.97;101178.53;4985474;28;103619;-53
2021/07/25 01:22:33;;;;;;;5.65;4.53;;;;;;;23.31;68.84;101177.72;4981488;28;102410;-53
2021/07/25 01:25:00;;;;;;;5.82;4.47;;;;;;;23.31;68.59;101193.56;4982234;28;102246;-53
2021/07/25 01:27:31;;;;;;;8.68;4.85;;;;;;;23.32;68.72;101178.53;4979060;28;103334;-53
2021/07/25 01:29:59;;;;;;;6.05;4.38;;;;;;;23.30;68.71;101180.81;4989690;28;102480;-53
2021/07/25 01:32:28;;;;;;;6.13;4.50;;;;;;;23.31;68.47;101174.13;4986882;28;102795;-53
2021/07/25 01:34:58;;;;;;;5.05;4.40;;;;;;;23.31;68.79;101188.00;4988380;28;102441;-53
2021/07/25 01:37:29;;;;;;;6.30;4.50;;;;;;;23.30;68.71;101180.81;4981737;28;105105;-53
2021/07/25 01:39:56;;;;;;;6.80;4.63;;;;;;;23.30;68.68;101189.16;4987780;28;102314;-53
2021/07/25 01:42:27;;;;;;;5.30;4.80;;;;;;;23.30;68.84;101192.75;4976923;28;102157;-53
2021/07/25 01:44:54;;;;;;;6.10;4.60;;;;;;;23.31;68.85;101193.56;4973266;28;103035;-52
2021/07/25 01:47:21;;;;;;;5.40;4.03;;;;;;;23.30;68.78;101194.69;4976523;28;103886;-53
2021/07/25 01:49:47;;;;;;;5.30;4.28;;;;;;;23.30;68.63;101197.47;4985199;28;102659;-53
2021/07/25 01:52:14;;;;;;;6.45;4.70;;;;;;;23.30;68.55;101203.88;4989382;28;102061;-53
2021/07/25 01:54:43;;;;;;;6.45;4.47;;;;;;;23.30;68.74;101203.03;4987703;28;102607;-53
2021/07/25 01:57:10;;;;;;;5.03;4.10;;;;;;;23.29;68.77;101207.78;4986165;28;103866;-53
2021/07/25 01:59:37;;;;;;;5.97;4.47;;;;;;;23.30;68.79;101212.19;4984802;28;102405;-53
2021/07/25 02:02:04;;;;;;;4.55;4.10;;;;;;;23.31;68.87;101210.22;4980029;28;102709;-53
2021/07/25 02:04:30;;;;;;;5.55;4.32;;;;;;;23.28;68.90;101211.72;4982107;28;102205;-53
2021/07/25 02:06:59;;;;;;;7.47;4.30;;;;;;;23.30;68.68;101217.75;4984284;28;103895;-53
2021/07/25 02:09:26;;;;;;;7.05;4.40;;;;;;;23.31;68.82;101210.22;4985652;28;102177;-53
2021/07/25 02:11:54;;;;;;;5.07;4.32;;;;;;;23.30;68.61;101211.38;4988376;28;102339;-53
2021/07/25 02:14:21;;;;;;;4.60;4.10;;;;;;;23.29;69.00;101218.09;4987789;28;102298;-52
2021/07/25 02:16:48;;;;;;;5.13;4.30;;;;;;;23.28;68.82;101217.28;4971388;28;104067;-53
2021/07/25 02:19:15;;;;;;;7.55;4.68;;;;;;;23.29;69.12;101218.88;4986672;28;102520;-53
2021/07/25 02:21:42;;;;;;;5.60;4.28;;;;;;;23.27;68.92;101216.47;4986140;28;103107;-53
2021/07/25 02:24:09;;;;;;;6.65;3.80;;;;;;;23.30;68.92;101216.91;4983909;28;102630;-53
2021/07/25 02:26:35;;;;;;;4.90;4.00;;;;;;;23.29;68.94;101221.66;4985381;28;104134;-53
2021/07/25 02:29:04;;;;;;;6.40;3.80;;;;;;;23.30;68.94;101225.25;4987024;28;102342;-54
2021/07/25 02:31:31;;;;;;;6.15;3.92;;;;;;;23.29;68.76;101218.09;4977869;28;102462;-53
2021/07/25 02:33:58;;;;;;;4.75;3.80;;;;;;;23.29;68.96;101223.63;4987988;28;102382;-53
2021/07/25 02:36:25;;;;;;;4.32;3.92;;;;;;;23.29;68.88;101226.41;4981955;28;104118;-53
2021/07/25 02:38:52;;;;;;;5.47;4.05;;;;;;;23.28;68.65;101228.38;4988913;28;102505;-53
2021/07/25 02:41:19;;;;;;;5.15;3.75;;;;;;;23.28;68.90;101222.84;4983118;28;102255;-53
2021/07/25 02:43:45;;;;;;;4.43;3.90;;;;;;;23.29;68.82;101223.63;4989327;28;102277;-52
2021/07/25 02:46:13;;;;;;;4.30;3.78;;;;;;;23.29;69.08;101229.19;4984857;28;102916;-53
2021/07/25 02:48:40;;;;;;;6.77;4.60;;;;;;;23.29;68.81;101229.19;4986251;28;102630;-53
2021/07/25 02:51:07;;;;;;;6.05;4.22;;;;;;;23.28;68.87;101228.38;4973410;28;102342;-53
2021/07/25 02:53:35;;;;;;;4.28;3.72;;;;;;;23.28;68.99;101239.50;4989328;28;102239;-53
2021/07/25 02:56:02;;;;;;;4.90;4.25;;;;;;;23.27;69.33;101238.69;4986334;28;104069;-53
2021/07/25 02:58:29;;;;;;;5.28;4.30;;;;;;;23.28;68.98;101239.50;4980267;28;102495;-53
2021/07/25 03:00:56;;;;;;;7.18;4.15;;;;;;;23.29;69.00;101240.31;4984824;28;106330;-53
2021/07/25 03:03:24;;;;;;;5.93;3.60;;;;;;;23.27;68.98;101249.00;4987259;28;102899;-56
2021/07/25 03:05:52;;;;;;;4.43;3.90;;;;;;;23.27;68.77;101238.69;4983092;28;103661;-53
2021/07/25 03:08:18;;;;;;;6.80;4.28;;;;;;;23.26;69.00;101242.63;4986183;28;102398;-57
2021/07/25 03:10:48;;;;;;;4.38;3.65;;;;;;;23.27;69.07;101238.69;4986218;28;102677;-53
2021/07/25 03:13:15;;;;;;;4.70;3.65;;;;;;;23.27;69.08;101249.00;4986039;28;102196;-53
2021/07/25 03:15:42;;;;;;;5.22;3.83;;;;;;;23.26;69.02;101248.19;4981164;28;103920;-53
2021/07/25 03:18:08;;;;;;;7.10;4.25;;;;;;;23.27;69.11;101249.78;4986447;28;102723;-52
2021/07/25 03:20:36;;;;;;;5.20;4.40;;;;;;;23.26;68.96;101259.28;4984073;28;102065;-53
2021/07/25 03:23:03;;;;;;;5.25;4.30;;;;;;;23.27;69.05;101263.69;4981269;28;102485;-53
2021/07/25 03:25:30;;;;;;;6.25;4.47;;;;;;;23.27;69.17;101271.22;4995832;28;104061;-53
2021/07/25 03:27:57;;;;;;;4.05;3.65;;;;;;;23.27;69.01;101266.47;4985213;28;103085;-53
2021/07/25 03:30:23;;;;;;;4.80;4.32;;;;;;;23.27;69.04;101265.66;4985732;28;102505;-53
2021/07/25 03:32:50;;;;;;;4.57;3.80;;;;;;;23.26;69.00;101261.22;4982865;28;102418;-52
2021/07/25 03:35:17;;;;;;;4.88;3.92;;;;;;;23.27;69.19;101266.47;4996234;28;104023;-53
2021/07/25 03:37:46;;;;;;;6.13;3.78;;;;;;;23.27;69.12;101269.22;4987149;28;102920;-53
2021/07/25 03:40:14;;;;;;;5.78;3.85;;;;;;;23.27;68.97;101272.00;4984877;28;102456;-53
2021/07/25 03:42:41;;;;;;;7.50;3.87;;;;;;;23.27;69.08;101272.00;4984398;28;105373;-53
2021/07/25 03:45:08;;;;;;;4.40;3.97;;;;;;;23.27;69.00;101273.97;4983386;28;103872;-53
2021/07/25 03:47:34;;;;;;;4.90;3.67;;;;;;;23.26;69.29;101272.34;4985921;28;102653;-53
2021/07/25 03:50:01;;;;;;;4.78;3.65;;;;;;;23.26;69.31;101275.94;4978629;28;102118;-53
2021/07/25 03:52:28;;;;;;;3.97;3.58;;;;;;;23.27;69.30;101276.75;4986383;28;102795;-53
2021/07/25 03:54:56;;;;;;;4.75;4.00;;;;;;;23.27;69.64;101277.56;4986892;28;103901;-53
2021/07/25 03:57:23;;;;;;;4.77;4.13;;;;;;;23.29;69.39;101279.19;4985687;28;102425;-53
2021/07/25 03:59:49;;;;;;;4.50;3.40;;;;;;;23.27;69.58;101276.75;4997405;28;102506;-57
2021/07/25 04:02:16;;;;;;;4.18;3.67;;;;;;;23.27;69.87;101282.31;4979567;28;102319;-54
2021/07/25 04:04:42;;;;;;;3.65;3.35;;;;;;;23.27;69.79;101277.56;5001085;28;103986;-53
2021/07/25 04:07:09;;;;;;;4.43;3.65;;;;;;;23.27;69.66;101280.34;5015662;28;102116;-53
2021/07/25 04:09:36;;;;;;;4.38;3.75;;;;;;;23.27;69.78;101285.91;5008941;28;101894;-53
2021/07/25 04:12:05;;;;;;;5.20;3.85;;;;;;;23.26;70.00;101287.06;5004729;28;103777;-54
2021/07/25 04:14:31;;;;;;;;;;;;;;;23.29;69.67;101287.50;4986905;28;102986;-54
2021/07/25 04:16:58;;;;;;;3.78;3.47;;;;;;;23.29;69.68;101293.06;4993032;28;102604;-53
2021/07/25 04:19:27;;;;;;;3.72;3.40;;;;;;;23.28;70.10;101295.03;4990826;28;102303;-53
2021/07/25 04:21:54;;;;;;;3.60;3.30;;;;;;;23.29;70.01;101295.84;4991759;28;102194;-53
2021/07/25 04:24:21;;;;;;;4.20;3.45;;;;;;;23.29;70.08;101295.84;4989142;28;103838;-53
2021/07/25 04:26:48;;;;;;;4.63;3.60;;;;;;;23.27;70.12;101288.69;4993662;28;102174;-53
2021/07/25 04:29:16;;;;;;;3.63;3.33;;;;;;;23.27;70.17;101294.22;4991266;28;102561;-53
2021/07/25 04:31:44;;;;;;;6.25;3.50;;;;;;;23.27;70.05;101288.69;4989558;28;102106;-53
2021/07/25 04:34:11;;;;;;;3.58;3.28;;;;;;;23.27;70.13;101288.69;5005321;28;103414;-53
2021/07/25 04:36:42;;;;;;;3.97;3.58;;;;;;;23.28;69.91;101295.03;4981680;28;102585;-53
2021/07/25 04:39:11;;;;;;;4.68;3.70;;;;;;;23.28;70.20;101297.81;4985378;28;102431;-53
2021/07/25 04:41:40;;;;;;;;;;;;;;;23.29;70.14;101295.84;4986368;28;103418;-53
2021/07/25 04:44:13;;;;;;;5.45;3.78;;;;;;;23.27;70.29;101288.69;4987260;28;103843;-53
2021/07/25 04:46:46;;;;;;;4.78;3.45;;;;;;;23.27;70.13;101291.44;4985292;28;103786;-53
2021/07/25 04:49:14;;;;;;;4.20;3.78;;;;;;;23.30;69.96;101297.47;4980903;28;102002;-53
2021/07/25 04:51:43;;;;;;;4.20;3.80;;;;;;;23.29;70.29;101295.84;4990935;28;102318;-53
2021/07/25 04:54:12;;;;;;;5.15;3.78;;;;;;;23.29;70.07;101295.84;4980370;28;103866;-53
2021/07/25 04:56:48;;;;;;;6.25;4.10;;;;;;;23.29;70.03;101295.84;4991801;28;102255;-53
2021/07/25 04:59:20;;;;;;;4.85;3.80;;;;;;;23.30;70.04;101303.00;4981646;28;102358;-53
2021/07/25 05:01:50;;;;;;;5.60;3.85;;;;;;;23.30;70.41;101298.28;4984303;28;102002;-53
2021/07/25 05:04:20;;;;;;;4.68;3.92;;;;;;;23.30;70.48;101306.63;4983138;28;103850;-53
2021/07/25 05:06:47;;;;;;;4.97;3.88;;;;;;;23.31;70.23;101299.91;4981153;28;102427;-53
2021/07/25 05:09:15;;;;;;;4.47;3.67;;;;;;;23.31;70.16;101291.56;4978474;28;102194;-53
2021/07/25 05:11:50;;;;;;;5.15;4.32;;;;;;;23.31;70.39;101299.09;4991988;28;102310;-53
2021/07/25 05:14:25;;;;;;;5.32;3.90;;;;;;;23.32;70.19;101306.28;4987683;28;103884;-53
2021/07/25 05:17:01;;;;;;;5.57;4.13;;;;;;;23.31;70.27;101299.91;4983807;28;102633;-53
2021/07/25 05:19:40;;;;;;;4.30;3.90;;;;;;;23.33;70.12;101302.31;4991771;28;102455;-53
2021/07/25 05:22:18;;;;;;;5.43;4.03;;;;;;;23.33;70.11;101302.31;4993694;28;102267;-53
2021/07/25 05:24:46;;;;;;;4.43;4.03;;;;;;;23.34;70.09;101315.88;4981717;28;104022;-52
2021/07/25 05:27:19;;;;;;;4.18;3.80;;;;;;;23.35;70.41;101322.25;4977770;28;102612;-53
2021/07/25 05:29:47;;;;;;;6.68;3.88;;;;;;;23.36;70.39;101321.09;4975002;28;102750;-53
2021/07/25 05:32:16;;;;;;;4.43;4.03;;;;;;;23.36;70.22;101312.75;4988858;28;102349;-53
2021/07/25 05:34:43;;;;;;;;;;;;;;;23.37;70.03;101317.16;4988457;28;103862;-53
2021/07/25 05:37:10;;;;;;;4.90;3.75;;;;;;;23.37;70.37;101323.53;4988394;28;102365;-53
2021/07/25 05:39:36;;;;;;;4.35;3.72;;;;;;;23.38;70.12;101316.00;4985366;28;102206;-53
2021/07/25 05:42:03;;;;;;;4.13;3.75;;;;;;;23.39;70.29;101314.84;4988035;28;102335;-53
2021/07/25 05:44:31;;;;;;;4.32;3.92;;;;;;;23.40;70.15;101313.69;4985999;28;104021;-53
2021/07/25 05:47:00;;;;;;;5.97;3.75;;;;;;;23.41;69.81;101318.09;4988972;28;102044;-53
2021/07/25 05:49:28;;;;;;;4.88;3.88;;;;;;;23.42;70.13;101328.84;4985033;28;102678;-53
2021/07/25 05:51:55;;;;;;;4.60;3.97;;;;;;;23.43;69.93;101324.09;4985403;28;102377;-53
2021/07/25 05:54:21;;;;;;;7.85;3.72;;;;;;;23.44;70.11;101314.63;4984261;28;103902;-53
2021/07/25 05:56:48;;;;;;;5.75;4.10;;;;;;;23.44;70.05;101317.38;4981677;28;102963;-53
2021/07/25 05:59:14;;;;;;;4.60;3.75;;;;;;;23.46;70.02;101324.22;4983621;28;102092;-53
2021/07/25 06:01:42;;;;;;;4.82;3.70;;;;;;;23.47;69.66;101325.84;4981560;28;102683;-53
2021/07/25 06:04:09;;;;;;;3.97;3.58;;;;;;;23.48;70.15;101323.91;4978158;28;104379;-53
2021/07/25 06:06:37;;;;;;;4.78;4.38;;;;;;;23.49;70.06;101328.31;4988713;28;102160;-53
2021/07/25 06:09:04;;;;;;;4.90;3.92;;;;;;;23.51;69.77;101323.19;4985125;28;102106;-53
2021/07/25 06:11:31;;;;;;;5.35;4.22;;;;;;;23.52;69.83;101333.16;4987802;28;102487;-53
2021/07/25 06:13:58;;;;;;;4.25;3.85;;;;;;;23.54;69.58;101325.28;4992481;28;104009;-53
2021/07/25 06:16:24;;;;;;;4.60;4.20;;;;;;;23.54;69.71;101319.72;4995852;28;102337;-53
2021/07/25 06:18:52;;;;;;;4.65;3.75;;;;;;;23.56;69.68;101328.53;4988410;28;102152;-53
2021/07/25 06:21:19;;;;;;;6.53;4.45;;;;;;;23.56;69.59;101328.53;4988562;28;102452;-53
2021/07/25 06:23:48;;;;;;;4.82;3.88;;;;;;;23.57;69.58;101335.72;4980455;28;104700;-53
2021/07/25 06:26:15;;;;;;;4.57;4.18;;;;;;;23.59;69.63;101333.41;4987813;28;102431;-53
2021/07/25 06:28:42;;;;;;;6.38;4.03;;;;;;;23.58;69.64;101329.00;4986559;28;102478;-53
2021/07/25 06:31:08;;;;;;;5.22;4.10;;;;;;;23.59;69.47;101330.63;4983434;28;102701;-53
2021/07/25 06:33:35;;;;;;;5.03;4.05;;;;;;;23.60;69.55;101335.03;4988297;28;103915;-54
2021/07/25 06:36:02;;;;;;;4.80;4.07;;;;;;;23.61;69.47;101336.63;4989129;28;102464;-53
2021/07/25 06:38:29;;;;;;;4.30;3.90;;;;;;;23.63;69.57;101331.56;4977552;28;102645;-53
2021/07/25 06:40:57;;;;;;;5.13;4.15;;;;;;;23.63;69.35;101334.34;4972199;28;102324;-53
2021/07/25 06:43:24;;;;;;;5.97;4.43;;;;;;;23.63;69.78;101328.78;4982518;28;103901;-53
2021/07/25 06:45:51;;;;;;;4.38;3.97;;;;;;;23.64;69.39;101326.81;4989667;28;102241;-53
2021/07/25 06:48:18;;;;;;;4.35;3.95;;;;;;;23.64;69.46;101326.81;4986241;28;102504;-54
2021/07/25 06:50:47;;;;;;;4.47;4.07;;;;;;;23.65;69.46;101323.69;4977844;28;102831;-53
2021/07/25 06:53:13;;;;;;;;;;;;;;;23.67;69.24;101334.50;4983901;28;103849;-53
2021/07/25 06:55:41;;;;;;;4.60;4.20;;;;;;;23.66;69.29;101328.09;4979636;28;103748;-53
2021/07/25 06:58:09;;;;;;;4.47;4.07;;;;;;;23.67;69.27;101328.94;4984668;28;102284;-54
2021/07/25 07:00:35;;;;;;;4.60;4.10;;;;;;;23.67;69.64;101324.19;4978128;28;102326;-53
2021/07/25 07:03:03;;;;;;;4.40;3.80;;;;;;;23.68;69.30;101325.81;4979116;28;106323;-53
2021/07/25 07:05:32;;;;;;;4.93;3.90;;;;;;;23.69;69.34;101332.16;4982084;28;102279;-53
2021/07/25 07:08:04;;;;;;;4.60;3.83;;;;;;;23.70;69.29;101336.59;4986456;28;102288;-53
2021/07/25 07:10:32;;;;;;;4.28;3.90;;;;;;;23.69;69.19;101334.94;4986864;28;103416;-53
2021/07/25 07:13:02;;;;;;;4.18;3.67;;;;;;;23.70;69.23;101334.63;4983534;28;104030;-53
2021/07/25 07:15:31;;;;;;;4.18;3.75;;;;;;;23.72;69.37;101337.03;4989387;28;102469;-53
2021/07/25 07:17:58;;;;;;;4.00;3.65;;;;;;;23.72;69.30;101334.25;4994281;28;102506;-53
2021/07/25 07:20:26;;;;;;;4.38;3.97;;;;;;;23.71;69.17;101336.22;4979472;28;102584;-55
2021/07/25 07:22:54;;;;;;;5.55;4.07;;;;;;;23.71;69.37;101340.97;4982313;28;103922;-53
2021/07/25 07:25:22;;;;;;;5.53;4.18;;;;;;;23.72;69.40;101345.38;4985186;28;102713;-53
2021/07/25 07:27:49;;;;;;;5.97;4.30;;;;;;;23.74;69.31;101341.09;4986214;28;102743;-53
2021/07/25 07:30:16;;;;;;;6.55;4.22;;;;;;;23.74;69.29;101340.28;4986399;28;102529;-53
2021/07/25 07:32:44;;;;;;;4.20;3.80;;;;;;;23.75;69.20;101341.91;4988214;28;103908;-53
2021/07/25 07:35:11;;;;;;;4.23;3.80;;;;;;;23.73;69.22;101345.03;4982244;28;102540;-52
2021/07/25 07:37:38;;;;;;;5.75;4.10;;;;;;;23.74;69.36;101355.00;4986690;28;102627;-53
2021/07/25 07:40:06;;;;;;;6.35;4.00;;;;;;;23.74;69.38;101348.63;4991664;28;102171;-54
2021/07/25 07:42:32;;;;;;;4.63;4.23;;;;;;;23.74;69.25;101346.66;4983657;28;103918;-54
2021/07/25 07:44:59;;;;;;;4.40;4.00;;;;;;;23.76;69.34;101345.50;4984271;28;102315;-53
2021/07/25 07:47:25;;;;;;;4.50;4.10;;;;;;;23.76;69.12;101360.19;5000150;28;102770;-53
2021/07/25 07:49:54;;;;;;;4.68;4.20;;;;;;;23.77;69.20;101349.91;4988968;28;102994;-53
2021/07/25 07:52:21;;;;;;;4.28;3.88;;;;;;;23.75;69.35;101344.69;4988705;28;103924;-53
2021/07/25 07:54:47;;;;;;;4.38;3.97;;;;;;;23.76;69.33;101354.63;4993640;28;102786;-54
2021/07/25 07:57:13;;;;;;;4.40;4.03;;;;;;;23.76;69.24;101348.28;4988013;28;102532;-53
2021/07/25 07:59:40;;;;;;;4.65;3.97;;;;;;;23.77;69.29;101352.69;4988733;28;102845;-54
2021/07/25 08:02:07;;;;;;;4.80;4.30;;;;;;;23.77;69.07;101350.72;4987704;28;103684;-53
2021/07/25 08:04:34;;;;;;;4.63;4.22;;;;;;;23.78;69.21;101352.34;4988515;28;102537;-53
2021/07/25 08:07:02;;;;;;;4.57;4.10;;;;;;;23.80;69.36;101354.75;4990824;28;102513;-53
2021/07/25 08:09:29;;;;;;;4.43;4.03;;;;;;;23.81;68.80;101357.22;4996126;28;102568;-53
2021/07/25 08:11:59;;;;;;;4.25;3.70;;;;;;;23.81;69.07;101360.00;4987236;28;103390;-53
2021/07/25 08:14:26;;;;;;;4.60;4.20;;;;;;;23.81;68.97;101353.63;4980546;28;102557;-53
2021/07/25 08:16:52;;;;;;;4.70;3.70;;;;;;;23.82;68.76;101356.03;4994499;28;103125;-53
2021/07/25 08:19:19;;;;;;;4.10;3.75;;;;;;;23.82;68.96;101371.91;4990836;28;104384;-53
2021/07/25 08:21:46;;;;;;;4.07;3.67;;;;;;;23.82;69.04;101369.13;4988547;28;105220;-53
2021/07/25 08:24:14;;;;;;;4.45;3.60;;;;;;;23.81;68.96;101362.78;4988228;28;102914;-53
2021/07/25 08:26:40;;;;;;;4.53;3.85;;;;;;;23.83;68.90;101365.19;4991362;28;102958;-54
2021/07/25 08:29:07;;;;;;;4.05;3.65;;;;;;;23.83;69.10;101359.63;4987946;28;102272;-53
2021/07/25 08:31:36;;;;;;;4.30;3.90;;;;;;;23.83;68.83;101360.44;4990598;28;104094;-53
2021/07/25 08:34:03;;;;;;;4.38;3.75;;;;;;;23.84;68.79;101364.88;4987856;28;102546;-53
2021/07/25 08:36:30;;;;;;;4.63;4.22;;;;;;;23.89;67.48;101358.25;4987518;28;102788;-53
2021/07/25 08:38:57;;;;;;;5.07;4.55;;;;;;;23.89;64.98;101361.84;4983887;28;102730;-53
2021/07/25 08:41:59;;;;;;;7.78;4.10;;;;;;;23.86;63.76;101365.31;4981978;28;104360;-53
2021/07/25 08:44:40;;;;;;;8.27;4.65;;;;;;;23.82;62.59;101360.78;4975809;28;103469;-53
2021/07/25 08:47:20;;;;;;;9.98;4.38;;;;;;;23.82;62.72;101358.00;4981262;28;102559;-53
2021/07/25 08:49:55;;;;;;;8.80;4.70;;;;;;;23.82;63.74;101349.69;5000811;28;102005;-54
2021/07/25 08:52:24;;;;;;;5.43;4.32;;;;;;;23.82;62.77;101347.69;4976612;28;104181;-54
2021/07/25 08:54:51;;;;;;;6.80;4.95;;;;;;;23.85;62.55;101357.31;4983640;28;102763;-53
2021/07/25 08:57:21;;;;;;;7.90;4.72;;;;;;;23.84;60.54;101344.56;4981565;28;102493;-54
2021/07/25 08:59:50;;;;;;;5.20;4.40;;;;;;;23.82;61.10;101353.25;4978460;28;102488;-53
2021/07/25 09:02:17;;;;;;;;;;;;;;;23.82;61.91;101344.13;4987550;28;103843;-53
2021/07/25 09:04:45;;;;;;;10.75;5.05;;;;;;;23.84;60.05;101350.97;4985826;28;102590;-53
2021/07/25 09:07:12;;;;;;;7.33;4.80;;;;;;;23.84;60.38;101355.69;4994031;28;102741;-53
2021/07/25 09:09:40;;;;;;;5.30;4.80;;;;;;;23.83;59.78;101354.06;4986160;28;103351;-53
2021/07/25 09:12:08;;;;;;;6.30;4.97;;;;;;;23.86;59.84;101358.94;4990340;28;104487;-54
2021/07/25 09:14:40;;;;;;;5.50;4.60;;;;;;;23.84;60.61;101355.69;4991084;28;102585;-52
2021/07/25 09:17:07;;;;;;;9.13;5.47;;;;;;;23.85;61.89;101357.31;4992308;28;103524;-52
2021/07/25 09:19:34;;;;;;;6.60;5.43;;;;;;;23.85;62.38;101341.47;5000773;28;102658;-53
2021/07/25 09:22:02;;;;;;;4.93;4.53;;;;;;;23.87;62.71;101355.00;4992987;28;103011;-53
2021/07/25 09:24:32;;;;;;;5.57;5.07;;;;;;;23.87;63.72;101350.25;5005594;28;102549;-53
2021/07/25 09:27:00;;;;;;;5.70;5.07;;;;;;;23.89;63.32;101359.06;5001403;28;102761;-52
2021/07/25 09:29:28;;;;;;;6.68;5.07;;;;;;;23.91;63.41;101364.25;4991128;28;101822;-54
2021/07/25 09:32:11;;;;;;;6.95;5.70;;;;;;;23.91;63.24;101367.03;4980217;28;102991;-52
2021/07/25 09:34:39;;;;;;;6.63;5.10;;;;;;;23.91;63.56;101356.75;4998837;28;102205;-52
2021/07/25 09:37:07;;;;;;;7.00;5.80;;;;;;;23.92;63.92;101357.56;4987912;28;102235;-52
2021/07/25 09:39:38;;;;;;;6.10;5.15;;;;;;;23.92;63.52;101363.13;4986289;28;102457;-52
2021/07/25 09:42:06;;;;;;;8.35;5.55;;;;;;;23.93;63.53;101367.53;4981817;28;103971;-53
2021/07/25 09:44:50;;;;;;;5.80;5.20;;;;;;;23.94;64.34;101371.91;4992762;28;102661;-53
2021/07/25 09:47:30;;;;;;;6.05;5.22;;;;;;;23.93;64.05;101360.00;4984106;28;102541;-52
2021/07/25 09:49:57;;;;;;;5.50;5.00;;;;;;;23.93;64.02;101361.97;4984391;28;102570;-53
2021/07/25 09:52:41;;;;;;;6.18;5.57;;;;;;;23.94;64.07;101366.34;4988049;28;103947;-52
2021/07/25 09:55:09;;;;;;;5.82;5.32;;;;;;;23.94;65.17;101360.78;4982997;28;102503;-52
2021/07/25 09:57:36;;;;;;;6.20;5.70;;;;;;;23.93;65.68;101360.00;4989515;28;103537;-52
2021/07/25 10:00:08;;;;;;;13.77;6.43;;;;;;;23.94;64.52;101356.03;4990646;28;102215;-52
2021/07/25 10:02:42;;;;;;;5.97;5.40;;;;;;;23.95;64.68;101365.22;4984364;28;102831;-52
2021/07/25 10:05:11;;;;;;;6.40;5.03;;;;;;;23.94;63.98;101356.03;4980138;28;102616;-53
2021/07/25 10:07:38;;;;;;;6.75;5.22;;;;;;;23.94;65.20;101360.78;4986889;28;102777;-52
2021/07/25 10:10:06;;;;;;;6.00;5.50;;;;;;;23.93;65.21;101362.75;4990624;28;102309;-52
2021/07/25 10:12:38;;;;;;;6.55;5.95;;;;;;;23.93;66.10;101359.19;4990265;28;104609;-52
2021/07/25 10:15:06;;;;;;;6.35;5.72;;;;;;;23.93;64.91;101357.22;4988883;28;102910;-54
2021/07/25 10:17:34;;;;;;;6.25;5.75;;;;;;;23.93;65.18;101365.53;4974943;28;102529;-53
2021/07/25 10:20:04;;;;;;;5.78;5.28;;;;;;;23.92;65.60;101355.59;4986182;28;102785;-53
2021/07/25 10:22:32;;;;;;;6.05;5.45;;;;;;;23.92;66.08;101352.00;4973918;28;104097;-53
2021/07/25 10:25:00;;;;;;;6.60;6.00;;;;;;;23.92;66.22;101352.00;4987860;28;102436;-53
2021/07/25 10:27:27;;;;;;;7.47;5.97;;;;;;;23.92;66.31;101352.00;4979319;28;103383;-54
2021/07/25 10:29:55;;;;;;;6.68;6.07;;;;;;;23.91;66.10;101355.91;4978255;28;102416;-53
2021/07/25 10:32:23;;;;;;;7.05;6.20;;;;;;;23.91;66.58;101356.75;4979814;28;103621;-53
2021/07/25 10:34:49;;;;;;;7.00;6.32;;;;;;;23.91;66.70;101355.91;4981434;28;102390;-53
2021/07/25 10:37:19;;;;;;;6.43;5.93;;;;;;;23.91;66.36;101361.47;4986016;28;103721;-54
2021/07/25 10:39:50;;;;;;;6.97;6.32;;;;;;;23.91;66.70;101355.91;4987279;28;102600;-53
2021/07/25 10:42:21;;;;;;;6.50;5.90;;;;;;;23.90;66.94;101355.13;4988061;28;103940;-53
2021/07/25 10:44:48;;;;;;;6.90;6.30;;;;;;;23.90;66.99;101357.09;4988480;28;102692;-53
2021/07/25 10:47:26;;;;;;;6.70;6.05;;;;;;;23.89;66.84;101361.03;4985781;28;102155;-53
2021/07/25 10:50:00;;;;;;;;;;;;;;;23.87;66.65;101355.81;4985788;28;102274;-53
2021/07/25 10:53:02;;;;;;;6.88;6.18;;;;;;;23.88;67.16;101357.44;4987826;28;103861;-53
2021/07/25 10:55:47;;;;;;;7.97;6.25;;;;;;;23.87;66.87;101355.81;4985764;28;102822;-53
2021/07/25 10:58:17;;;;;;;6.38;5.78;;;;;;;23.87;66.87;101355.00;4982975;28;102434;-53
2021/07/25 11:00:50;;;;;;;6.45;5.85;;;;;;;23.86;67.09;101354.19;4983280;28;104153;-53
2021/07/25 11:03:42;;;;;;;6.82;6.22;;;;;;;23.86;67.11;101353.38;4983256;28;104126;-53
2021/07/25 11:06:19;;;;;;;7.65;5.80;;;;;;;23.86;67.13;101351.41;4984285;28;103132;-53
2021/07/25 11:08:50;;;;;;;6.93;5.95;;;;;;;23.85;66.97;101351.78;4982009;28;102873;-53
2021/07/25 11:11:54;;;;;;;6.88;6.28;;;;;;;23.86;67.29;101356.16;4984558;28;102403;-53
2021/07/25 11:15:05;;;;;;;8.38;6.05;;;;;;;23.84;67.12;101356.53;4982058;28;103697;-53
2021/07/25 11:17:48;;;;;;;8.18;6.22;;;;;;;23.84;67.33;101355.69;4982333;28;102450;-53
2021/07/25 11:20:40;;;;;;;6.88;6.28;;;;;;;23.83;67.37;101354.88;4972722;28;102194;-53
2021/07/25 11:23:12;;;;;;;6.80;6.15;;;;;;;23.83;67.38;101363.22;4984569;28;103245;-53
2021/07/25 11:25:41;;;;;;;7.15;5.65;;;;;;;23.85;64.89;101351.78;4981493;28;104100;-53
2021/07/25 11:28:09;;;;;;;7.32;5.90;;;;;;;23.88;65.99;101353.84;4981050;28;102553;-54